Terminal Aerodrome Forecast
Issued by NWS Chicago, IL

Home | Current Version | Previous Version | Text Only | Print | Product List | Glossary Off
Versions: 1 2 3 4 5 6 7 8 9 10 11 12 13 14 15 16 17 18 19 20 21 22 23 24 25 26 27

761
FTUS43 KLOT 241509 AAA
TAFRFD
TAF AMD
KRFD 241509Z 2415/2512 08008KT P6SM BKN010
     FM241600 09009KT P6SM BKN015
     FM242100 11009KT P6SM BKN035
     FM250200 12006KT 6SM BR BKN050=

USA.gov is the U.S. government's official web portal to all federal, state and local government web resources and services.